Time;durP1;ratioP1;P1;durP2;ratioP2;P2;SDS_P1;SDS_P2;PMS_P1;PMS_P2;Temp;Humidity;BMP_temperature;BMP_pressure;BME280_temperature;BME280_humidity;BME280_pressure;Samples;Min_cycle;Max_cycle;Signal;HPM_P1;HPM_P2
2021/12/22 00:00:51;;;;;;;24.05;11.18;;;-2.80;99.90;;;;;;4959630;28;20529;-79
2021/12/22 00:03:18;;;;;;;20.45;10.95;;;-2.80;99.90;;;;;;4974511;28;20223;-79
2021/12/22 00:05:46;;;;;;;19.65;9.90;;;-2.80;99.90;;;;;;4975210;28;20046;-79
2021/12/22 00:08:13;;;;;;;21.38;11.45;;;-2.80;99.90;;;;;;4975280;28;20050;-79
2021/12/22 00:10:41;;;;;;;25.40;12.30;;;-2.90;99.90;;;;;;4975365;28;20239;-79
2021/12/22 00:13:06;;;;;;;20.98;10.45;;;-2.90;99.90;;;;;;4977251;28;20049;-79
2021/12/22 00:15:32;;;;;;;24.90;11.27;;;-2.90;99.90;;;;;;4975536;28;20118;-79
2021/12/22 00:17:58;;;;;;;21.35;9.48;;;-2.90;99.90;;;;;;4959655;28;20035;-79
2021/12/22 00:20:23;;;;;;;24.08;10.77;;;-2.90;99.90;;;;;;4976263;28;20045;-79
2021/12/22 00:22:49;;;;;;;26.98;11.02;;;-2.90;99.90;;;;;;4975438;28;20047;-79
2021/12/22 00:25:16;;;;;;;19.55;10.25;;;-2.90;99.90;;;;;;4975511;28;20042;-79
2021/12/22 00:27:41;;;;;;;20.48;9.85;;;-2.90;99.90;;;;;;4975697;28;20055;-79
2021/12/22 00:30:09;;;;;;;22.15;10.10;;;-2.90;99.90;;;;;;4976722;28;20039;-79
2021/12/22 00:32:36;;;;;;;28.88;12.18;;;-3.00;99.90;;;;;;4975353;28;20122;-79
2021/12/22 00:35:04;;;;;;;21.85;10.73;;;-3.00;99.90;;;;;;4974810;28;20043;-79
2021/12/22 00:37:31;;;;;;;23.48;10.88;;;-3.00;99.90;;;;;;4975306;28;20046;-79
2021/12/22 00:39:57;;;;;;;23.25;10.38;;;-2.90;99.90;;;;;;4975076;28;20491;-79
2021/12/22 00:42:24;;;;;;;25.17;10.98;;;-2.90;99.90;;;;;;4975220;28;20129;-79
2021/12/22 00:44:53;;;;;;;23.60;11.60;;;-2.90;99.90;;;;;;4974690;28;20035;-79
2021/12/22 00:47:21;;;;;;;21.73;10.70;;;-2.90;99.90;;;;;;4974155;28;20050;-79
2021/12/22 00:49:46;;;;;;;26.67;11.60;;;-3.00;99.90;;;;;;4974250;28;20042;-78
2021/12/22 00:52:12;;;;;;;20.17;9.93;;;-3.00;99.90;;;;;;4974434;28;20039;-79
2021/12/22 00:54:37;;;;;;;23.98;11.50;;;-3.00;99.90;;;;;;4976606;28;20491;-78
2021/12/22 00:57:05;;;;;;;25.70;12.95;;;-3.00;99.90;;;;;;4977426;28;20074;-78
2021/12/22 00:59:34;;;;;;;20.77;11.63;;;-3.00;99.90;;;;;;4977564;28;20403;-78
2021/12/22 01:02:01;;;;;;;18.73;10.45;;;-3.00;99.90;;;;;;4975492;28;20047;-79
2021/12/22 01:04:27;;;;;;;22.77;11.18;;;-3.10;99.90;;;;;;4974426;28;20054;-79
2021/12/22 01:06:52;;;;;;;25.73;11.38;;;-3.10;99.90;;;;;;4974060;28;20038;-79
2021/12/22 01:09:18;;;;;;;24.52;11.88;;;-3.10;99.90;;;;;;4977181;28;20525;-78
2021/12/22 01:11:44;;;;;;;22.20;10.20;;;-3.10;99.90;;;;;;4977179;28;20065;-78
2021/12/22 01:14:10;;;;;;;25.45;11.55;;;-3.10;99.90;;;;;;4977450;28;20182;-78
2021/12/22 01:16:36;;;;;;;24.88;11.35;;;-3.20;99.90;;;;;;4976835;28;20487;-79
2021/12/22 01:19:07;;;;;;;29.02;12.15;;;-3.20;99.90;;;;;;4973926;28;20089;-76
2021/12/22 01:21:41;;;;;;;28.33;10.57;;;-3.20;99.90;;;;;;4973351;28;20081;-76
2021/12/22 01:24:15;;;;;;;26.65;11.50;;;-3.20;99.90;;;;;;4973574;28;20399;-76
2021/12/22 01:26:46;;;;;;;21.83;11.23;;;-3.30;99.90;;;;;;4973034;28;20221;-76
2021/12/22 01:29:14;;;;;;;22.95;11.38;;;-3.30;99.90;;;;;;4973207;28;20039;-76
2021/12/22 01:31:42;;;;;;;23.50;11.18;;;-3.30;99.90;;;;;;4957058;28;20045;-76
2021/12/22 01:34:08;;;;;;;22.63;10.77;;;-3.30;99.90;;;;;;4973206;28;20054;-76
2021/12/22 01:36:34;;;;;;;23.10;10.80;;;-3.20;99.90;;;;;;4974051;28;20067;-76
2021/12/22 01:38:59;;;;;;;20.95;10.60;;;-3.20;99.90;;;;;;4972954;28;20510;-76
2021/12/22 01:41:25;;;;;;;22.73;12.63;;;-3.20;99.90;;;;;;4972947;28;20122;-76
2021/12/22 01:43:51;;;;;;;27.88;12.45;;;-3.20;99.90;;;;;;4973207;28;20082;-76
2021/12/22 01:49:11;;;;;;;22.52;10.13;;;-3.20;99.90;;;;;;4973573;28;20376;-79
2021/12/22 01:52:00;;;;;;;21.13;9.75;;;-3.20;99.90;;;;;;4973447;28;20086;-79
2021/12/22 01:54:34;;;;;;;23.55;10.32;;;-3.20;99.90;;;;;;4973533;28;20105;-79
2021/12/22 01:57:06;;;;;;;22.17;10.77;;;-3.20;99.90;;;;;;4973615;28;20101;-79
2021/12/22 01:59:32;;;;;;;23.33;11.48;;;-3.20;99.90;;;;;;4973028;28;20058;-79
2021/12/22 02:01:59;;;;;;;23.73;10.80;;;-3.30;99.90;;;;;;4973153;28;20178;-79
2021/12/22 02:04:25;;;;;;;24.30;11.93;;;-3.30;99.90;;;;;;4957499;28;20094;-79
2021/12/22 02:06:51;;;;;;;26.85;11.40;;;-3.30;99.90;;;;;;4956917;28;20078;-79
2021/12/22 02:09:53;;;;;;;26.58;11.25;;;-3.30;99.90;;;;;;4973194;28;20046;-79
2021/12/22 02:12:19;;;;;;;21.92;10.10;;;-3.30;99.90;;;;;;4972971;28;20131;-79
2021/12/22 02:14:45;;;;;;;24.90;12.00;;;-3.40;99.90;;;;;;4956953;28;20094;-79
2021/12/22 02:17:12;;;;;;;20.20;10.73;;;-3.40;99.90;;;;;;4972764;28;20047;-79
2021/12/22 02:19:46;;;;;;;26.73;11.57;;;-3.40;99.90;;;;;;4973499;28;20038;-79
2021/12/22 02:22:15;;;;;;;25.50;11.50;;;-3.40;99.90;;;;;;4972879;28;20491;-79
2021/12/22 02:24:50;;;;;;;26.20;11.98;;;-3.50;99.90;;;;;;4972783;28;20054;-79
2021/12/22 02:27:38;;;;;;;20.80;10.55;;;-3.50;99.90;;;;;;4972587;28;20046;-79
2021/12/22 02:30:06;;;;;;;26.10;11.98;;;-3.50;99.90;;;;;;4972860;28;20129;-79
2021/12/22 02:35:25;;;;;;;21.30;10.82;;;-3.50;99.90;;;;;;4972846;28;20423;-78
2021/12/22 02:37:51;;;;;;;21.35;10.65;;;-3.50;99.90;;;;;;4973009;28;20050;-79
2021/12/22 02:40:19;;;;;;;24.02;11.75;;;-3.50;99.90;;;;;;4973172;28;20119;-79
2021/12/22 02:42:46;;;;;;;21.58;10.27;;;-3.50;99.90;;;;;;4973538;28;20035;-78
2021/12/22 02:45:16;;;;;;;19.17;10.45;;;-3.50;99.90;;;;;;4974067;28;20126;-79
2021/12/22 02:47:41;;;;;;;24.10;11.35;;;-3.50;99.90;;;;;;4956722;28;20052;-79
2021/12/22 02:50:09;;;;;;;23.55;11.63;;;-3.50;99.90;;;;;;4973165;28;20425;-79
2021/12/22 02:52:48;;;;;;;21.20;9.73;;;-3.50;99.90;;;;;;4973244;28;20443;-79
2021/12/22 02:55:14;;;;;;;24.23;11.02;;;-3.50;99.90;;;;;;4973135;28;20410;-79
2021/12/22 02:57:45;;;;;;;24.30;11.35;;;-3.50;99.90;;;;;;4973617;28;20129;-79
2021/12/22 03:00:47;;;;;;;21.83;10.80;;;-3.60;99.90;;;;;;4973551;28;20050;-79
2021/12/22 03:03:28;;;;;;;24.98;13.55;;;-3.60;99.90;;;;;;4973132;28;20042;-79
2021/12/22 03:05:54;;;;;;;19.60;10.48;;;-3.60;99.90;;;;;;4973727;28;20062;-79
2021/12/22 03:08:20;;;;;;;21.77;10.50;;;-3.60;99.90;;;;;;4973899;28;20077;-79
2021/12/22 03:10:45;;;;;;;22.90;11.70;;;-3.60;99.90;;;;;;4957093;28;20495;-79
2021/12/22 03:13:11;;;;;;;20.60;10.13;;;-3.60;99.90;;;;;;4974309;28;20047;-79
2021/12/22 03:15:36;;;;;;;22.48;11.65;;;-3.60;99.90;;;;;;4959450;28;20042;-79
2021/12/22 03:18:04;;;;;;;23.67;11.35;;;-3.60;99.90;;;;;;4959888;28;20045;-79
2021/12/22 03:20:29;;;;;;;29.00;11.95;;;-3.60;99.90;;;;;;4960090;28;20049;-79
2021/12/22 03:22:55;;;;;;;21.38;10.63;;;-3.70;99.90;;;;;;4959734;28;20487;-79
2021/12/22 03:25:26;;;;;;;24.30;11.00;;;-3.70;99.90;;;;;;4959852;28;20038;-79
2021/12/22 03:27:53;;;;;;;25.67;10.55;;;-3.70;99.90;;;;;;4976721;28;20399;-79
2021/12/22 03:30:21;;;;;;;23.00;11.00;;;-3.70;99.90;;;;;;4960791;28;20485;-79
2021/12/22 03:32:47;;;;;;;20.60;10.57;;;-3.70;99.90;;;;;;4975566;28;20047;-79
2021/12/22 03:35:17;;;;;;;21.05;9.73;;;-3.70;99.90;;;;;;4959250;28;20046;-79
2021/12/22 03:37:45;;;;;;;24.58;10.82;;;-3.70;99.90;;;;;;4975750;28;20117;-79
2021/12/22 03:40:11;;;;;;;21.15;10.80;;;-3.70;99.90;;;;;;4959883;28;20049;-79
2021/12/22 03:42:37;;;;;;;24.27;11.30;;;-3.70;99.90;;;;;;4959956;28;20035;-79
2021/12/22 03:45:03;;;;;;;25.45;11.65;;;-3.80;99.90;;;;;;4925659;28;1006130;-79
2021/12/22 03:47:29;;;;;;;22.40;9.93;;;-3.80;99.90;;;;;;4977101;28;20046;-79
2021/12/22 03:49:55;;;;;;;18.90;10.07;;;-3.80;99.90;;;;;;4960833;28;20046;-79
2021/12/22 03:52:20;;;;;;;25.80;11.82;;;-3.80;99.90;;;;;;4976922;28;20042;-79
2021/12/22 03:54:46;;;;;;;22.23;9.90;;;-3.90;99.90;;;;;;4978327;28;20035;-79
2021/12/22 03:57:11;;;;;;;19.88;10.55;;;-3.90;99.90;;;;;;4976891;28;20035;-79
2021/12/22 03:59:37;;;;;;;26.92;11.35;;;-3.90;99.90;;;;;;4976462;28;20043;-79
2021/12/22 04:02:03;;;;;;;27.15;11.57;;;-3.90;99.90;;;;;;4976564;28;20042;-79
2021/12/22 04:04:29;;;;;;;28.95;9.85;;;-3.90;99.90;;;;;;4960111;28;20057;-79
2021/12/22 04:06:55;;;;;;;20.60;10.35;;;-3.90;99.90;;;;;;4975571;28;20106;-78
2021/12/22 04:09:26;;;;;;;22.55;10.80;;;-3.90;99.90;;;;;;4959777;28;20043;-79
2021/12/22 04:11:53;;;;;;;19.83;9.90;;;-3.90;99.90;;;;;;4976457;28;20038;-79
2021/12/22 04:14:18;;;;;;;26.33;11.35;;;-3.90;99.90;;;;;;4976320;28;20035;-79
2021/12/22 04:16:44;;;;;;;23.92;10.90;;;-3.90;99.90;;;;;;4975622;28;20464;-79
2021/12/22 04:19:09;;;;;;;24.17;10.60;;;-3.90;99.90;;;;;;4959624;28;20558;-79
2021/12/22 04:21:35;;;;;;;20.85;10.10;;;-3.90;99.90;;;;;;4959514;28;20506;-81
2021/12/22 04:24:01;;;;;;;23.25;11.13;;;-3.90;99.90;;;;;;4978686;28;20050;-81
2021/12/22 04:26:30;;;;;;;24.98;11.18;;;-4.00;99.90;;;;;;4979304;28;20130;-81
2021/12/22 04:28:55;;;;;;;25.80;12.27;;;-4.00;99.90;;;;;;4963208;28;20038;-81
2021/12/22 04:31:21;;;;;;;25.75;10.70;;;-4.00;99.90;;;;;;4963145;28;20046;-81
2021/12/22 04:33:46;;;;;;;22.67;10.52;;;-4.00;99.90;;;;;;4978894;28;20084;-81
2021/12/22 04:36:12;;;;;;;20.48;9.80;;;-4.00;99.90;;;;;;4979359;28;20042;-81
2021/12/22 04:38:38;;;;;;;26.42;11.38;;;-4.10;99.90;;;;;;4978709;28;20062;-81
2021/12/22 04:41:03;;;;;;;22.83;10.73;;;-4.10;99.90;;;;;;4962384;28;20525;-81
2021/12/22 04:43:29;;;;;;;25.08;11.23;;;-4.10;99.90;;;;;;4978973;28;20097;-81
2021/12/22 04:45:54;;;;;;;21.00;9.55;;;-4.10;99.90;;;;;;4962003;28;20125;-81
2021/12/22 04:48:20;;;;;;;24.85;10.57;;;-4.00;99.90;;;;;;4978536;28;20122;-81
2021/12/22 04:50:46;;;;;;;24.35;10.48;;;-4.10;99.90;;;;;;4979083;28;20042;-81
2021/12/22 04:53:17;;;;;;;24.42;11.73;;;-4.10;99.90;;;;;;4962601;28;20045;-81
2021/12/22 04:55:42;;;;;;;24.63;10.77;;;-4.10;99.90;;;;;;4978354;28;20121;-81
2021/12/22 04:58:08;;;;;;;22.55;9.77;;;-4.20;99.90;;;;;;4962915;28;20109;-81
2021/12/22 05:00:36;;;;;;;23.83;10.60;;;-4.20;99.90;;;;;;4978798;28;20035;-81
2021/12/22 05:03:02;;;;;;;23.83;10.93;;;-4.10;99.90;;;;;;4962231;28;20031;-81
2021/12/22 05:05:29;;;;;;;30.20;11.75;;;-4.20;99.90;;;;;;4978391;28;20098;-81
2021/12/22 05:07:55;;;;;;;28.95;10.88;;;-4.10;99.90;;;;;;4978342;28;20062;-81
2021/12/22 05:10:21;;;;;;;24.23;10.88;;;-4.10;99.90;;;;;;4962077;28;20158;-81
2021/12/22 05:12:47;;;;;;;26.38;11.93;;;-4.10;99.90;;;;;;4962303;28;20043;-81
2021/12/22 05:15:14;;;;;;;26.40;12.07;;;-4.10;99.90;;;;;;4978042;28;20050;-81
2021/12/22 05:20:10;;;;;;;24.17;11.30;;;-4.10;99.90;;;;;;4978327;28;20043;-81
2021/12/22 05:22:35;;;;;;;24.92;10.38;;;-4.10;99.90;;;;;;4961816;28;20035;-81
2021/12/22 05:25:03;;;;;;;25.90;12.32;;;-4.10;99.90;;;;;;4978006;28;20101;-81
2021/12/22 05:27:30;;;;;;;24.40;11.52;;;-4.10;99.90;;;;;;4977787;28;20035;-81
2021/12/22 05:29:56;;;;;;;25.63;11.32;;;-4.10;99.90;;;;;;4962051;28;20082;-81
2021/12/22 05:32:26;;;;;;;28.60;11.95;;;-4.10;99.90;;;;;;4978194;28;20082;-81
2021/12/22 05:34:52;;;;;;;21.10;9.68;;;-4.10;99.90;;;;;;4977507;28;20078;-81
2021/12/22 05:37:18;;;;;;;25.02;11.57;;;-4.10;99.90;;;;;;4977366;28;20047;-81
2021/12/22 05:39:44;;;;;;;26.77;10.77;;;-4.10;99.90;;;;;;4961979;28;20392;-79
2021/12/22 05:42:09;;;;;;;28.00;11.95;;;-4.10;99.90;;;;;;4958459;28;20135;-79
2021/12/22 05:44:35;;;;;;;20.52;10.80;;;-4.10;99.90;;;;;;4973857;28;20049;-79
2021/12/22 05:47:00;;;;;;;27.38;11.65;;;-4.10;99.90;;;;;;4957653;28;20043;-79
2021/12/22 05:49:26;;;;;;;25.17;10.07;;;-4.10;99.90;;;;;;4974501;28;20058;-79
2021/12/22 05:51:51;;;;;;;23.40;10.60;;;-4.10;99.90;;;;;;4982768;28;20038;-81
2021/12/22 05:54:17;;;;;;;22.58;12.02;;;-4.10;99.90;;;;;;4965479;28;20073;-80
2021/12/22 05:56:42;;;;;;;27.70;10.80;;;-4.10;99.90;;;;;;4982160;28;20050;-80
2021/12/22 05:59:08;;;;;;;26.73;11.27;;;-4.10;99.90;;;;;;4982963;28;20046;-82
2021/12/22 06:01:34;;;;;;;24.05;11.85;;;-4.10;99.90;;;;;;4982468;28;20102;-80
2021/12/22 06:04:00;;;;;;;26.45;11.98;;;-4.10;99.90;;;;;;4969405;28;20042;-81
2021/12/22 06:06:26;;;;;;;27.98;11.23;;;-4.10;99.90;;;;;;4983908;28;20078;-80
2021/12/22 06:08:52;;;;;;;25.98;11.10;;;-4.10;99.90;;;;;;4984230;28;20050;-80
2021/12/22 06:11:18;;;;;;;25.83;10.70;;;-4.10;99.90;;;;;;4985435;28;20045;-81
2021/12/22 06:13:44;;;;;;;23.83;11.85;;;-4.10;99.90;;;;;;4985298;28;20042;-80
2021/12/22 06:16:10;;;;;;;25.95;12.13;;;-4.10;99.90;;;;;;4968655;28;20086;-81
2021/12/22 06:18:41;;;;;;;35.17;15.70;;;-4.10;99.90;;;;;;4968195;28;20106;-81
2021/12/22 06:21:07;;;;;;;30.83;14.15;;;-4.10;99.90;;;;;;4983042;28;20118;-80
2021/12/22 06:23:33;;;;;;;20.23;10.80;;;-4.10;99.90;;;;;;4981067;28;20141;-81
2021/12/22 06:25:58;;;;;;;24.65;12.20;;;-4.10;99.90;;;;;;4963944;28;20043;-80
2021/12/22 06:28:24;;;;;;;22.40;11.40;;;-4.10;99.90;;;;;;4982406;28;20047;-80
2021/12/22 06:30:49;;;;;;;26.17;11.57;;;-4.10;99.90;;;;;;4983445;28;20046;-80
2021/12/22 06:33:15;;;;;;;22.52;11.50;;;-4.10;99.90;;;;;;4984380;28;20078;-82
2021/12/22 06:35:41;;;;;;;23.77;11.02;;;-4.10;99.90;;;;;;4967868;28;20047;-81
2021/12/22 06:38:07;;;;;;;26.05;10.98;;;-4.10;99.90;;;;;;4983477;28;20039;-81
2021/12/22 06:40:33;;;;;;;25.38;11.18;;;-4.10;99.90;;;;;;4966872;28;20346;-80
2021/12/22 06:42:58;;;;;;;26.63;10.77;;;-4.10;99.90;;;;;;4967915;28;20039;-81
2021/12/22 06:45:24;;;;;;;26.58;11.55;;;-4.10;99.90;;;;;;4967141;28;20111;-81
2021/12/22 06:47:52;;;;;;;33.55;13.57;;;-4.10;99.90;;;;;;4966122;28;20057;-81
2021/12/22 06:50:20;;;;;;;23.98;10.00;;;-4.10;99.90;;;;;;4981424;28;20517;-83
2021/12/22 06:52:45;;;;;;;112.10;44.05;;;-4.10;99.90;;;;;;4946596;28;20034;-84
2021/12/22 06:55:11;;;;;;;26.85;11.55;;;-4.10;99.90;;;;;;4983094;28;20050;-82
2021/12/22 06:57:36;;;;;;;21.27;10.15;;;-4.10;99.90;;;;;;4982246;28;20126;-82
2021/12/22 07:00:06;;;;;;;23.80;11.45;;;-4.10;99.90;;;;;;4981066;28;20065;-84
2021/12/22 07:02:35;;;;;;;23.33;11.68;;;-4.10;99.90;;;;;;4980073;28;20035;-83
2021/12/22 07:05:02;;;;;;;25.65;11.57;;;-4.10;99.90;;;;;;4976109;28;20055;-80
2021/12/22 07:07:27;;;;;;;22.98;9.38;;;-4.10;99.90;;;;;;4961539;28;20129;-80
2021/12/22 07:09:53;;;;;;;22.42;11.00;;;-4.10;99.90;;;;;;4962031;28;20081;-80
2021/12/22 07:12:18;;;;;;;26.95;11.07;;;-4.10;99.90;;;;;;4961676;28;20415;-80
2021/12/22 07:14:44;;;;;;;28.10;10.48;;;-4.10;99.90;;;;;;4961762;28;20054;-81
2021/12/22 07:17:11;;;;;;;21.88;9.90;;;-4.00;99.90;;;;;;4961873;28;20046;-80
2021/12/22 07:19:36;;;;;;;25.05;9.77;;;-4.10;99.90;;;;;;4962087;28;20085;-80
2021/12/22 07:22:02;;;;;;;20.98;9.57;;;-4.00;99.90;;;;;;4977787;28;20047;-81
2021/12/22 07:24:28;;;;;;;26.50;10.75;;;-4.10;99.90;;;;;;4979151;28;20043;-80
2021/12/22 07:26:53;;;;;;;20.00;10.02;;;-4.10;99.90;;;;;;4961571;28;20084;-81
2021/12/22 07:29:19;;;;;;;23.25;10.57;;;-4.10;99.90;;;;;;4976636;28;20051;-80
2021/12/22 07:31:44;;;;;;;23.45;10.48;;;-4.00;99.90;;;;;;4978775;28;20054;-81
2021/12/22 07:34:20;;;;;;;21.63;9.82;;;-4.00;99.90;;;;;;4976443;28;20050;-80
2021/12/22 07:36:54;;;;;;;22.30;10.00;;;-4.00;99.90;;;;;;4978215;28;20035;-80
2021/12/22 07:39:20;;;;;;;26.30;9.63;;;-3.90;99.90;;;;;;4978202;28;20042;-80
2021/12/22 07:41:46;;;;;;;21.50;9.10;;;-3.80;99.90;;;;;;4978944;28;20050;-80
2021/12/22 07:44:11;;;;;;;20.98;9.02;;;-3.90;99.90;;;;;;4978984;28;20085;-80
2021/12/22 07:46:37;;;;;;;21.25;9.27;;;-3.90;99.90;;;;;;4977300;28;20046;-81
2021/12/22 07:49:02;;;;;;;22.25;9.70;;;-3.90;99.90;;;;;;4979565;28;20046;-81
2021/12/22 07:51:28;;;;;;;20.67;9.90;;;-3.90;99.90;;;;;;4978849;28;20039;-80
2021/12/22 07:53:53;;;;;;;24.85;10.50;;;-3.90;99.90;;;;;;4961774;28;20051;-80
2021/12/22 07:56:19;;;;;;;22.85;10.55;;;-3.80;99.90;;;;;;4980878;28;20039;-81
2021/12/22 07:58:44;;;;;;;22.80;9.07;;;-3.80;99.90;;;;;;4969604;28;20094;-80
2021/12/22 08:01:10;;;;;;;28.15;10.85;;;-3.80;99.90;;;;;;4983486;28;20054;-80
2021/12/22 08:03:35;;;;;;;28.90;10.07;;;-3.70;99.90;;;;;;4978516;28;20050;-78
2021/12/22 08:06:01;;;;;;;25.58;10.05;;;-3.70;99.90;;;;;;4959514;28;20075;-78
2021/12/22 08:08:27;;;;;;;25.83;11.88;;;-3.70;99.90;;;;;;4976333;28;20101;-78
2021/12/22 08:10:52;;;;;;;25.27;10.52;;;-3.70;99.90;;;;;;4958965;28;20380;-78
2021/12/22 08:13:18;;;;;;;21.48;9.38;;;-3.60;99.90;;;;;;4976685;28;20096;-78
2021/12/22 08:15:44;;;;;;;23.40;9.30;;;-3.50;99.90;;;;;;4979137;28;20075;-78
2021/12/22 08:18:10;;;;;;;30.13;11.85;;;-3.50;99.90;;;;;;4977351;28;20178;-78
2021/12/22 08:20:36;;;;;;;23.25;9.57;;;-3.50;99.90;;;;;;4976394;28;20039;-78
2021/12/22 08:23:02;;;;;;;30.02;10.70;;;-3.40;99.90;;;;;;4975976;28;20034;-78
2021/12/22 08:25:28;;;;;;;24.85;10.48;;;-3.40;99.90;;;;;;4974726;28;20039;-78
2021/12/22 08:27:53;;;;;;;33.67;10.82;;;-3.30;99.90;;;;;;4958228;28;20053;-78
2021/12/22 08:30:19;;;;;;;23.20;9.90;;;-3.20;99.90;;;;;;4975778;28;20073;-78
2021/12/22 08:32:45;;;;;;;21.02;10.05;;;-3.20;99.90;;;;;;4959486;28;20133;-79
2021/12/22 08:35:13;;;;;;;23.90;10.57;;;-3.10;99.90;;;;;;4976432;28;20521;-79
2021/12/22 08:40:24;;;;;;;23.70;9.63;;;-3.00;99.90;;;;;;4974934;28;20130;-79
2021/12/22 08:42:51;;;;;;;22.45;10.88;;;-3.00;99.90;;;;;;4975252;28;20126;-79
2021/12/22 08:45:17;;;;;;;20.75;9.77;;;-2.90;99.90;;;;;;4974608;28;20055;-79
2021/12/22 08:47:43;;;;;;;20.55;10.57;;;-2.80;99.90;;;;;;4975558;28;20043;-79
2021/12/22 08:50:11;;;;;;;21.02;10.23;;;-2.90;99.90;;;;;;4974248;28;20452;-79
2021/12/22 08:52:36;;;;;;;25.45;10.20;;;-2.80;99.90;;;;;;4958200;28;20042;-79
2021/12/22 08:55:03;;;;;;;24.52;9.23;;;-2.70;99.90;;;;;;4975288;28;20109;-79
2021/12/22 08:57:29;;;;;;;20.05;9.20;;;-2.70;99.90;;;;;;4975214;28;20102;-79
2021/12/22 08:59:55;;;;;;;20.95;9.43;;;-2.60;99.90;;;;;;4979076;28;20062;-81
2021/12/22 09:02:21;;;;;;;27.02;10.80;;;-2.60;99.90;;;;;;4978408;28;20047;-79
2021/12/22 09:04:47;;;;;;;22.25;9.57;;;-2.50;99.90;;;;;;4958093;28;20047;-79
2021/12/22 09:07:13;;;;;;;17.02;8.80;;;-2.50;99.90;;;;;;4974789;28;20500;-79
2021/12/22 09:09:38;;;;;;;23.30;9.93;;;-2.50;99.90;;;;;;4974155;28;20578;-79
2021/12/22 09:12:08;;;;;;;18.98;9.52;;;-2.50;99.90;;;;;;4974935;28;20043;-79
2021/12/22 09:14:34;;;;;;;22.33;9.13;;;-2.50;99.90;;;;;;4973405;28;20169;-79
2021/12/22 09:17:00;;;;;;;20.92;9.13;;;-2.30;99.90;;;;;;4975222;28;20050;-78
2021/12/22 09:19:26;;;;;;;21.25;9.85;;;-2.40;99.90;;;;;;4975997;28;20055;-78
2021/12/22 09:21:52;;;;;;;19.42;10.05;;;-2.40;99.90;;;;;;4974514;28;20070;-78
2021/12/22 09:24:18;;;;;;;24.58;9.98;;;-2.30;99.90;;;;;;4975977;28;20042;-78
2021/12/22 09:26:45;;;;;;;26.38;9.38;;;-2.20;99.90;;;;;;4974430;28;20121;-78
2021/12/22 09:29:11;;;;;;;23.95;10.50;;;-2.10;99.90;;;;;;4974379;28;20058;-78
2021/12/22 09:31:36;;;;;;;14.70;8.00;;;-2.10;99.90;;;;;;4975642;28;20038;-78
2021/12/22 09:34:03;;;;;;;19.33;8.80;;;-1.90;99.90;;;;;;4975399;28;20085;-78
2021/12/22 09:36:28;;;;;;;26.42;10.45;;;-1.70;99.90;;;;;;4975636;28;20057;-79
2021/12/22 09:38:54;;;;;;;16.15;8.07;;;-1.30;99.90;;;;;;4974809;28;20035;-79
2021/12/22 09:41:20;;;;;;;20.05;9.25;;;-1.10;99.90;;;;;;4975657;28;20479;-79
2021/12/22 09:43:46;;;;;;;20.98;9.50;;;-0.80;99.90;;;;;;4960417;28;20066;-81
2021/12/22 09:46:16;;;;;;;18.40;9.55;;;-0.80;99.90;;;;;;4978590;28;20370;-80
2021/12/22 09:53:47;;;;;;;18.38;8.55;;;0.00;99.90;;;;;;4978516;28;20047;-81
2021/12/22 09:56:16;;;;;;;23.10;9.05;;;0.20;99.90;;;;;;4978091;28;20050;-81
2021/12/22 09:58:44;;;;;;;17.23;8.57;;;0.20;99.90;;;;;;4975878;28;20125;-81
2021/12/22 10:01:10;;;;;;;16.20;8.80;;;-0.10;99.90;;;;;;4960502;28;20056;-80
2021/12/22 10:03:37;;;;;;;18.27;7.90;;;-0.40;99.90;;;;;;4978143;28;20125;-80
2021/12/22 10:06:03;;;;;;;16.23;8.25;;;-0.60;99.90;;;;;;4977813;28;20057;-80
2021/12/22 10:08:29;;;;;;;16.48;7.65;;;-0.70;99.90;;;;;;4977735;28;20042;-80
2021/12/22 10:11:11;;;;;;;16.20;8.00;;;-0.90;99.90;;;;;;4960737;28;20046;-80
2021/12/22 10:13:39;;;;;;;21.85;9.00;;;-1.00;99.90;;;;;;4976745;28;20098;-81
2021/12/22 10:16:11;;;;;;;21.98;8.10;;;-1.10;99.90;;;;;;4975759;28;20395;-80
2021/12/22 10:18:37;;;;;;;23.25;9.43;;;-1.10;99.90;;;;;;4977418;28;20146;-81
2021/12/22 10:21:16;;;;;;;22.67;8.38;;;-1.00;99.90;;;;;;4960027;28;20078;-81
2021/12/22 10:23:51;;;;;;;27.98;9.48;;;-0.90;99.90;;;;;;4976999;28;20050;-81
2021/12/22 10:26:19;;;;;;;16.60;8.85;;;-0.90;99.90;;;;;;4959526;28;20238;-80
2021/12/22 10:28:51;;;;;;;20.27;8.02;;;-0.90;99.90;;;;;;4976882;28;20513;-81
2021/12/22 10:31:18;;;;;;;22.40;9.43;;;-0.80;99.90;;;;;;4960360;28;20049;-81
2021/12/22 10:33:45;;;;;;;17.00;8.82;;;-0.90;99.90;;;;;;4960285;28;20043;-80
2021/12/22 10:36:16;;;;;;;16.63;8.55;;;-0.80;99.90;;;;;;4960433;28;20058;-81
2021/12/22 10:38:49;;;;;;;17.27;8.50;;;-0.80;99.90;;;;;;4975673;28;20093;-81
2021/12/22 10:41:15;;;;;;;19.40;8.73;;;-0.60;99.90;;;;;;4975950;28;20057;-81
2021/12/22 10:43:44;;;;;;;19.05;8.65;;;-0.70;99.90;;;;;;4973982;28;20046;-79
2021/12/22 10:46:16;;;;;;;17.00;8.10;;;-0.70;99.90;;;;;;4972882;28;20055;-79
2021/12/22 10:51:36;;;;;;;15.32;7.45;;;-0.60;99.90;;;;;;4973276;28;20054;-79
2021/12/22 10:54:08;;;;;;;19.50;8.82;;;-0.70;99.90;;;;;;4973533;28;20163;-79
2021/12/22 10:56:36;;;;;;;24.58;9.27;;;-0.60;99.90;;;;;;4973298;28;20372;-79
2021/12/22 10:59:10;;;;;;;18.27;8.60;;;-0.60;99.90;;;;;;4973989;28;20043;-79
2021/12/22 11:01:39;;;;;;;17.33;8.60;;;-0.60;99.90;;;;;;4957347;28;20043;-79
2021/12/22 11:04:14;;;;;;;13.32;8.00;;;-0.60;99.90;;;;;;4972945;28;20092;-79
2021/12/22 11:06:40;;;;;;;15.32;8.20;;;-0.50;99.90;;;;;;4973188;28;20475;-79
2021/12/22 11:09:15;;;;;;;20.70;9.23;;;-0.50;99.90;;;;;;4956832;28;20085;-79
2021/12/22 11:11:47;;;;;;;18.38;9.15;;;-0.50;99.90;;;;;;4974086;28;20043;-79
2021/12/22 11:14:20;;;;;;;24.02;10.20;;;-0.40;99.90;;;;;;4972865;28;20043;-79
2021/12/22 11:16:55;;;;;;;19.17;7.88;;;-0.40;99.90;;;;;;4957141;28;20094;-79
2021/12/22 11:19:23;;;;;;;19.25;8.60;;;-0.40;99.90;;;;;;4973403;28;20088;-77
2021/12/22 11:22:07;;;;;;;17.13;8.68;;;-0.40;99.90;;;;;;4971742;28;20043;-78
2021/12/22 11:24:39;;;;;;;20.20;8.65;;;-0.30;99.90;;;;;;4971590;28;20126;-78
2021/12/22 11:27:06;;;;;;;16.20;8.68;;;-0.40;99.90;;;;;;4971695;28;20058;-78
2021/12/22 11:29:37;;;;;;;17.25;8.52;;;-0.40;99.90;;;;;;4971630;28;20089;-78
2021/12/22 11:32:04;;;;;;;20.17;8.52;;;-0.40;99.90;;;;;;4971603;28;20042;-78
2021/12/22 11:34:34;;;;;;;19.63;9.23;;;-0.40;99.90;;;;;;4974627;28;20047;-78
2021/12/22 11:37:02;;;;;;;21.95;8.70;;;-0.50;99.90;;;;;;4975131;28;20491;-78
2021/12/22 11:39:30;;;;;;;19.27;8.43;;;-0.60;99.90;;;;;;4976290;28;20050;-79
2021/12/22 11:41:58;;;;;;;21.05;9.02;;;-0.50;99.90;;;;;;4976373;28;20038;-79
2021/12/22 11:44:26;;;;;;;19.90;8.20;;;-0.40;99.90;;;;;;4976253;28;20046;-79
2021/12/22 11:46:59;;;;;;;19.98;8.50;;;-0.50;99.90;;;;;;4977590;28;20380;-79
2021/12/22 11:49:25;;;;;;;17.98;8.45;;;-0.40;99.90;;;;;;4977767;28;20527;-79
2021/12/22 11:51:52;;;;;;;23.35;9.73;;;-0.40;99.90;;;;;;4977154;28;20050;-79
2021/12/22 11:54:24;;;;;;;21.05;8.30;;;-0.40;99.90;;;;;;4977795;28;20074;-79
2021/12/22 11:56:51;;;;;;;15.52;8.45;;;-0.40;99.90;;;;;;4994130;28;20388;-79
2021/12/22 11:59:46;;;;;;;16.27;8.52;;;-0.40;99.90;;;;;;4978739;28;20038;-79
2021/12/22 12:02:15;;;;;;;18.35;9.20;;;-0.40;99.90;;;;;;4970020;28;20078;-79
2021/12/22 12:04:42;;;;;;;15.27;8.30;;;-0.40;99.90;;;;;;4961547;28;20111;-79
2021/12/22 12:07:07;;;;;;;21.80;8.45;;;-0.30;99.90;;;;;;4961881;28;20586;-79
2021/12/22 12:09:33;;;;;;;19.80;8.90;;;-0.30;99.90;;;;;;4979893;28;20062;-79
2021/12/22 12:12:04;;;;;;;18.73;9.00;;;-0.20;99.90;;;;;;4980787;28;20042;-81
2021/12/22 12:14:35;;;;;;;18.20;9.10;;;-0.20;99.90;;;;;;4979317;28;20050;-81
2021/12/22 12:23:22;;;;;;;15.60;8.20;;;0.00;99.90;;;;;;4978611;28;20402;-77
2021/12/22 12:25:48;;;;;;;17.25;8.82;;;0.00;99.90;;;;;;4978581;28;20117;-79
2021/12/22 12:28:19;;;;;;;18.23;9.20;;;0.00;99.90;;;;;;4978127;28;20077;-79
2021/12/22 12:30:56;;;;;;;19.30;8.73;;;0.10;99.90;;;;;;4978392;28;20407;-79
2021/12/22 12:33:46;;;;;;;25.20;8.88;;;0.00;99.90;;;;;;4976375;28;20043;-79
2021/12/22 12:36:15;;;;;;;21.88;8.73;;;0.00;99.90;;;;;;4978560;28;20046;-79
2021/12/22 12:38:41;;;;;;;18.70;8.52;;;0.00;99.90;;;;;;4978782;28;20046;-79
2021/12/22 12:41:15;;;;;;;18.17;8.15;;;0.00;99.90;;;;;;4960636;28;20073;-79
2021/12/22 12:43:44;;;;;;;17.33;8.40;;;0.00;99.90;;;;;;4977578;28;20085;-79
2021/12/22 12:46:28;;;;;;;15.98;9.15;;;-0.10;99.90;;;;;;4976211;28;20050;-79
2021/12/22 12:49:20;;;;;;;17.92;7.95;;;-0.10;99.90;;;;;;4978380;28;20043;-79
2021/12/22 12:51:47;;;;;;;23.63;9.30;;;0.00;99.90;;;;;;4977432;28;20038;-79
2021/12/22 12:54:15;;;;;;;26.05;11.07;;;0.00;99.90;;;;;;4977384;28;20085;-79
2021/12/22 12:56:46;;;;;;;19.45;10.23;;;0.00;99.90;;;;;;4977469;28;20043;-79
2021/12/22 12:59:15;;;;;;;16.17;9.10;;;0.00;99.90;;;;;;4976565;28;20058;-79